Cranston, Iowa
Current Conditions -  °F | °C
As of 9:55 AM on Sunday 23 Nov 2014 (Local Time) from KMUT Reporting Station
Light Rain Light Rain  
Wind Chill: 50°   Ceiling: 500
Heat Index: 50°   Visibility: 2.5mi
Dew Point: 48°   Wind: 9mph
Humidity: 94%   Direction: 150°SSE
Pressure: 29.59"   Gusts: NA
Location:  41.2841°N, 91.2045°W
Report Text: KMUT 231555Z AUTO 15008KT 2 1/2SM -RA OVC005 10/09 A2959 RMK AO2 P0025
Loading
Personal Weather Stations






























Interactive Weather Map New forecast layout! Learn more

10-Day Weather Forecast

Advertisements
Track Severe Weather on mobile